Time;durP1;ratioP1;P1;durP2;ratioP2;P2;SDS_P1;SDS_P2;PMS_P1;PMS_P2;Temp;Humidity;BMP_temperature;BMP_pressure;BME280_temperature;BME280_humidity;BME280_pressure;Samples;Min_cycle;Max_cycle;Signal;HPM_P1;HPM_P2
2022/05/08 00:01:20;;;;;;;21.23;9.25;;;;;;;;;;5015549;28;20021;-71
2022/05/08 00:03:45;;;;;;;17.10;9.23;;;;;;;;;;5005332;28;20022;-71
2022/05/08 00:06:11;;;;;;;23.05;9.57;;;;;;;;;;5005348;28;23234;-72
2022/05/08 00:08:37;;;;;;;17.75;8.95;;;;;;;;;;5010610;28;20009;-72
2022/05/08 00:11:02;;;;;;;18.55;8.90;;;;;;;;;;4998575;28;20026;-71
2022/05/08 00:13:30;;;;;;;20.98;9.55;;;;;;;;;;5004935;28;20036;-72
2022/05/08 00:15:55;;;;;;;23.15;10.90;;;;;;;;;;5010910;28;20030;-71
2022/05/08 00:18:23;;;;;;;20.23;10.10;;;;;;;;;;5000948;28;20084;-72
2022/05/08 00:20:48;;;;;;;24.83;11.40;;;;;;;;;;5001003;28;20147;-72
2022/05/08 00:23:14;;;;;;;23.65;9.90;;;;;;;;;;5007161;28;20403;-71
2022/05/08 00:25:39;;;;;;;22.83;10.35;;;;;;;;;;5008214;28;20037;-72
2022/05/08 00:28:04;;;;;;;27.38;10.23;;;;;;;;;;5002442;28;20479;-72
2022/05/08 00:30:29;;;;;;;22.08;10.05;;;;;;;;;;5008488;28;20030;-72
2022/05/08 00:32:54;;;;;;;24.57;11.00;;;;;;;;;;5004897;28;20062;-72
2022/05/08 00:35:20;;;;;;;30.30;11.07;;;;;;;;;;4987674;28;20263;-71
2022/05/08 00:37:45;;;;;;;25.40;11.70;;;;;;;;;;4982534;28;20360;-72
2022/05/08 00:40:10;;;;;;;17.97;10.20;;;;;;;;;;4996891;28;20275;-72
2022/05/08 00:42:35;;;;;;;24.60;11.55;;;;;;;;;;4978840;28;20271;-71
2022/05/08 00:45:00;;;;;;;24.33;11.30;;;;;;;;;;4996037;28;20025;-72
2022/05/08 00:47:25;;;;;;;23.20;11.30;;;;;;;;;;4980163;28;20037;-71
2022/05/08 00:49:51;;;;;;;29.13;10.57;;;;;;;;;;4992942;28;20276;-72
2022/05/08 00:52:17;;;;;;;25.52;11.20;;;;;;;;;;4999352;28;20029;-72
2022/05/08 00:54:42;;;;;;;27.05;10.18;;;;;;;;;;4981671;28;20271;-71
2022/05/08 00:57:09;;;;;;;21.48;10.55;;;;;;;;;;4998921;28;20064;-71
2022/05/08 00:59:34;;;;;;;24.40;11.15;;;;;;;;;;4995316;28;20110;-71
2022/05/08 01:01:59;;;;;;;20.95;10.15;;;;;;;;;;4993688;28;20038;-71
2022/05/08 01:04:25;;;;;;;25.97;10.57;;;;;;;;;;4995470;28;20057;-71
2022/05/08 01:06:50;;;;;;;26.92;11.77;;;;;;;;;;4995487;28;20402;-72
2022/05/08 01:09:15;;;;;;;21.87;11.10;;;;;;;;;;4998389;28;20038;-71
2022/05/08 01:11:40;;;;;;;25.02;11.50;;;;;;;;;;4994851;28;20279;-72
2022/05/08 01:14:05;;;;;;;25.45;10.35;;;;;;;;;;4998081;28;21338;-71
2022/05/08 01:16:31;;;;;;;23.30;10.87;;;;;;;;;;5002834;28;20022;-71
2022/05/08 01:18:56;;;;;;;25.40;10.23;;;;;;;;;;5001665;28;20315;-70
2022/05/08 01:21:41;;;;;;;27.42;10.77;;;;;;;;;;4998231;28;20033;-72
2022/05/08 01:24:07;;;;;;;23.27;10.23;;;;;;;;;;4989985;28;20460;-71
2022/05/08 01:26:32;;;;;;;29.67;10.27;;;;;;;;;;4994216;28;20030;-71
2022/05/08 01:28:57;;;;;;;24.38;9.30;;;;;;;;;;4994795;28;20025;-71
2022/05/08 01:31:22;;;;;;;28.98;11.35;;;;;;;;;;5000031;28;20357;-71
2022/05/08 01:33:48;;;;;;;23.37;9.20;;;;;;;;;;4998465;28;20506;-72
2022/05/08 01:36:13;;;;;;;19.77;9.32;;;;;;;;;;4995263;28;20347;-71
2022/05/08 01:38:38;;;;;;;28.50;11.93;;;;;;;;;;5000872;28;20030;-71
2022/05/08 01:41:06;;;;;;;33.92;11.73;;;;;;;;;;4995005;28;20762;-72
2022/05/08 01:43:34;;;;;;;26.13;10.05;;;;;;;;;;4993445;28;20037;-72
2022/05/08 01:45:59;;;;;;;23.73;10.18;;;;;;;;;;4979471;28;20052;-71
2022/05/08 01:48:27;;;;;;;20.65;9.93;;;;;;;;;;4996512;28;20022;-71
2022/05/08 01:50:54;;;;;;;32.83;11.18;;;;;;;;;;4997344;28;20033;-70
2022/05/08 01:53:20;;;;;;;24.00;10.02;;;;;;;;;;4992235;28;20026;-71
2022/05/08 01:55:47;;;;;;;35.65;11.85;;;;;;;;;;4995416;28;22213;-71
2022/05/08 01:58:12;;;;;;;31.83;9.75;;;;;;;;;;4994458;28;20113;-71
2022/05/08 02:00:37;;;;;;;28.63;10.02;;;;;;;;;;4986201;28;20048;-72
2022/05/08 02:03:03;;;;;;;17.53;8.27;;;;;;;;;;5000214;28;20075;-72
2022/05/08 02:05:29;;;;;;;24.52;8.82;;;;;;;;;;4998022;28;20274;-71
2022/05/08 02:07:55;;;;;;;26.88;9.80;;;;;;;;;;4999216;28;20030;-71
2022/05/08 02:10:21;;;;;;;28.25;8.65;;;;;;;;;;5003814;28;20028;-72
2022/05/08 02:12:46;;;;;;;24.63;8.60;;;;;;;;;;5000588;28;20405;-71
2022/05/08 02:15:12;;;;;;;22.25;9.05;;;;;;;;;;4995340;28;20026;-71
2022/05/08 02:17:37;;;;;;;25.48;8.52;;;;;;;;;;5003198;28;20019;-71
2022/05/08 02:20:04;;;;;;;20.85;8.57;;;;;;;;;;4997160;28;20025;-71
2022/05/08 02:22:29;;;;;;;24.17;8.32;;;;;;;;;;5003616;28;20455;-71
2022/05/08 02:24:54;;;;;;;26.67;8.37;;;;;;;;;;4994095;28;20029;-71
2022/05/08 02:27:20;;;;;;;25.95;8.73;;;;;;;;;;4994178;28;20274;-71
2022/05/08 02:29:48;;;;;;;23.92;8.93;;;;;;;;;;5000099;28;20083;-71
2022/05/08 02:32:14;;;;;;;25.40;8.15;;;;;;;;;;4996958;28;20524;-71
2022/05/08 02:34:39;;;;;;;32.33;9.50;;;;;;;;;;4977984;28;21169;-72
2022/05/08 02:37:04;;;;;;;30.42;8.65;;;;;;;;;;4998348;28;20670;-70
2022/05/08 02:39:30;;;;;;;28.98;8.50;;;;;;;;;;4994315;28;20042;-70
2022/05/08 02:41:55;;;;;;;31.13;8.23;;;;;;;;;;4993175;28;20382;-70
2022/05/08 02:44:20;;;;;;;37.27;10.13;;;;;;;;;;4993284;28;20026;-71
2022/05/08 02:46:45;;;;;;;28.27;7.78;;;;;;;;;;4994355;28;20821;-71
2022/05/08 02:49:10;;;;;;;32.08;8.20;;;;;;;;;;4999522;28;20520;-71
2022/05/08 02:51:36;;;;;;;23.17;8.30;;;;;;;;;;5001097;28;20030;-71
2022/05/08 02:54:01;;;;;;;29.80;8.02;;;;;;;;;;4997725;28;20283;-71
2022/05/08 02:59:10;;;;;;;29.35;6.47;;;;;;;;;;4992752;28;20526;-71
2022/05/08 03:01:35;;;;;;;39.00;7.50;;;;;;;;;;4977388;28;20057;-71
2022/05/08 03:04:00;;;;;;;29.27;7.55;;;;;;;;;;4992301;28;20096;-71
2022/05/08 03:06:26;;;;;;;28.90;6.32;;;;;;;;;;4998434;28;20476;-71
2022/05/08 03:08:52;;;;;;;26.80;7.38;;;;;;;;;;4994611;28;20137;-71
2022/05/08 03:11:26;;;;;;;27.38;6.82;;;;;;;;;;4991960;28;20215;-71
2022/05/08 03:13:51;;;;;;;31.02;7.35;;;;;;;;;;4999767;28;20065;-71
2022/05/08 03:16:17;;;;;;;25.33;7.03;;;;;;;;;;5000981;28;20061;-72
2022/05/08 03:18:44;;;;;;;28.00;6.75;;;;;;;;;;4992359;28;20022;-72
2022/05/08 03:21:10;;;;;;;33.17;6.60;;;;;;;;;;5000584;28;20660;-71
2022/05/08 03:23:35;;;;;;;23.87;5.50;;;;;;;;;;4999845;28;20029;-71
2022/05/08 03:26:00;;;;;;;27.70;6.15;;;;;;;;;;4995668;28;20743;-70
2022/05/08 03:28:26;;;;;;;23.58;6.07;;;;;;;;;;4996237;28;20026;-70
2022/05/08 03:30:51;;;;;;;36.17;8.05;;;;;;;;;;4996782;28;20057;-71
2022/05/08 03:33:17;;;;;;;24.00;5.80;;;;;;;;;;4996446;28;20566;-71
2022/05/08 03:35:42;;;;;;;29.58;5.80;;;;;;;;;;4994522;28;20352;-71
2022/05/08 03:38:07;;;;;;;24.70;6.33;;;;;;;;;;4993888;28;20121;-71
2022/05/08 03:40:33;;;;;;;31.23;6.55;;;;;;;;;;4990583;28;20279;-71
2022/05/08 03:42:58;;;;;;;23.33;4.90;;;;;;;;;;4977912;28;20519;-71
2022/05/08 03:45:24;;;;;;;32.13;6.75;;;;;;;;;;4979432;28;20124;-71
2022/05/08 03:47:50;;;;;;;36.78;6.93;;;;;;;;;;4998565;28;20045;-71
2022/05/08 03:50:15;;;;;;;35.78;6.32;;;;;;;;;;4998215;28;20813;-71
2022/05/08 03:52:40;;;;;;;30.17;6.03;;;;;;;;;;5001562;28;20463;-71
2022/05/08 03:55:06;;;;;;;20.50;6.50;;;;;;;;;;4998105;28;20455;-70
2022/05/08 03:57:31;;;;;;;28.00;5.90;;;;;;;;;;5000162;28;20057;-71
2022/05/08 03:59:56;;;;;;;32.45;6.47;;;;;;;;;;5001415;28;20022;-71
2022/05/08 04:02:21;;;;;;;31.70;6.50;;;;;;;;;;4984552;28;20045;-71
2022/05/08 04:04:46;;;;;;;29.90;6.33;;;;;;;;;;5001761;28;20282;-71
2022/05/08 04:07:13;;;;;;;42.15;7.60;;;;;;;;;;4997440;28;20362;-71
2022/05/08 04:09:38;;;;;;;39.95;6.47;;;;;;;;;;4995221;28;22233;-71
2022/05/08 04:12:03;;;;;;;33.20;8.20;;;;;;;;;;4995442;28;20064;-70
2022/05/08 04:14:28;;;;;;;33.05;5.55;;;;;;;;;;5003200;28;20030;-71
2022/05/08 04:16:54;;;;;;;30.30;5.60;;;;;;;;;;4979871;28;20038;-69
2022/05/08 04:19:19;;;;;;;33.35;5.57;;;;;;;;;;4997249;28;20036;-70
2022/05/08 04:21:44;;;;;;;26.10;5.50;;;;;;;;;;4997617;28;20632;-71
2022/05/08 04:24:18;;;;;;;23.20;4.65;;;;;;;;;;4998201;28;20740;-71
2022/05/08 04:26:43;;;;;;;;;;;;;;;;;;4998198;28;20092;-70
2022/05/08 04:29:08;;;;;;;24.00;5.47;;;;;;;;;;5001195;28;19943;-71
2022/05/08 04:31:33;;;;;;;17.08;4.85;;;;;;;;;;5000638;28;20502;-70
2022/05/08 04:33:59;;;;;;;19.20;4.90;;;;;;;;;;5000911;28;20026;-71
2022/05/08 04:36:24;;;;;;;24.23;5.53;;;;;;;;;;4996506;28;20034;-71
2022/05/08 04:38:49;;;;;;;28.30;4.95;;;;;;;;;;5005195;28;20061;-72
2022/05/08 04:41:14;;;;;;;30.00;5.35;;;;;;;;;;4994824;28;20188;-71
2022/05/08 04:43:39;;;;;;;46.80;7.77;;;;;;;;;;5001832;28;20036;-72
2022/05/08 04:46:05;;;;;;;26.45;6.22;;;;;;;;;;4995385;28;20325;-71
2022/05/08 04:48:30;;;;;;;21.88;5.05;;;;;;;;;;4995915;28;20030;-71
2022/05/08 04:50:55;;;;;;;21.57;5.30;;;;;;;;;;5002483;28;20030;-72
2022/05/08 04:53:20;;;;;;;29.87;5.30;;;;;;;;;;4996614;28;20294;-71
2022/05/08 04:55:45;;;;;;;29.52;4.68;;;;;;;;;;4996190;28;20325;-71
2022/05/08 04:58:10;;;;;;;24.50;5.33;;;;;;;;;;4994361;28;20034;-70
2022/05/08 05:00:36;;;;;;;27.30;5.20;;;;;;;;;;5000748;28;20284;-71
2022/05/08 05:03:02;;;;;;;31.30;6.05;;;;;;;;;;4999447;28;20116;-71
2022/05/08 05:05:27;;;;;;;23.48;5.05;;;;;;;;;;4997926;28;20022;-71
2022/05/08 05:07:52;;;;;;;27.70;5.70;;;;;;;;;;5006216;28;20022;-71
2022/05/08 05:10:19;;;;;;;28.30;4.80;;;;;;;;;;4996897;28;20060;-71
2022/05/08 05:12:44;;;;;;;27.10;5.93;;;;;;;;;;4995509;28;20025;-71
2022/05/08 05:15:09;;;;;;;27.23;4.63;;;;;;;;;;4995116;28;20376;-71
2022/05/08 05:17:35;;;;;;;16.77;5.40;;;;;;;;;;4994042;28;20358;-71
2022/05/08 05:20:00;;;;;;;26.33;5.50;;;;;;;;;;5000676;28;20017;-71
2022/05/08 05:22:25;;;;;;;20.38;4.50;;;;;;;;;;4998310;28;20627;-70
2022/05/08 05:24:51;;;;;;;19.17;4.50;;;;;;;;;;5001243;28;20105;-70
2022/05/08 05:27:16;;;;;;;26.67;6.07;;;;;;;;;;4994693;28;20302;-71
2022/05/08 05:29:41;;;;;;;17.90;4.90;;;;;;;;;;5001276;28;20354;-71
2022/05/08 05:32:07;;;;;;;15.15;5.05;;;;;;;;;;4985977;28;20037;-71
2022/05/08 05:34:32;;;;;;;23.25;4.93;;;;;;;;;;5002794;28;20608;-70
2022/05/08 05:36:57;;;;;;;24.92;4.40;;;;;;;;;;5005490;28;20026;-71
2022/05/08 05:39:24;;;;;;;24.07;4.77;;;;;;;;;;5002846;28;20026;-70
2022/05/08 05:41:49;;;;;;;23.27;4.32;;;;;;;;;;4997211;28;20272;-71
2022/05/08 05:44:14;;;;;;;33.00;5.72;;;;;;;;;;4998044;28;20123;-71
2022/05/08 05:49:27;;;;;;;26.95;5.47;;;;;;;;;;5009128;28;20119;-71
2022/05/08 05:51:52;;;;;;;26.88;5.18;;;;;;;;;;5002049;28;20522;-70
2022/05/08 05:54:18;;;;;;;25.23;5.23;;;;;;;;;;4983333;28;20033;-71
2022/05/08 05:56:43;;;;;;;25.27;5.10;;;;;;;;;;4999451;28;20720;-71
2022/05/08 05:59:08;;;;;;;28.25;5.13;;;;;;;;;;5001448;28;20168;-71
2022/05/08 06:01:33;;;;;;;27.23;5.65;;;;;;;;;;4984223;28;20022;-71
2022/05/08 06:03:58;;;;;;;31.75;5.15;;;;;;;;;;4998226;28;20029;-71
2022/05/08 06:06:24;;;;;;;25.93;4.80;;;;;;;;;;4999979;28;20140;-71
2022/05/08 06:08:49;;;;;;;29.35;5.32;;;;;;;;;;5001448;28;20267;-71
2022/05/08 06:11:15;;;;;;;28.10;6.07;;;;;;;;;;5002468;28;20041;-71
2022/05/08 06:13:40;;;;;;;24.65;5.50;;;;;;;;;;5001137;28;20278;-71
2022/05/08 06:16:06;;;;;;;28.33;5.25;;;;;;;;;;5000807;28;20025;-70
2022/05/08 06:18:31;;;;;;;29.15;6.47;;;;;;;;;;4995624;28;20084;-70
2022/05/08 06:20:56;;;;;;;25.08;5.28;;;;;;;;;;5005419;28;20037;-70
2022/05/08 06:23:21;;;;;;;25.58;5.15;;;;;;;;;;4997639;28;20077;-70
2022/05/08 06:25:47;;;;;;;20.33;4.13;;;;;;;;;;4998693;28;20034;-70
2022/05/08 06:28:15;;;;;;;33.72;5.20;;;;;;;;;;5001046;28;20089;-69
2022/05/08 06:30:40;;;;;;;23.88;5.20;;;;;;;;;;5007774;28;20022;-70
2022/05/08 06:33:05;;;;;;;26.30;5.40;;;;;;;;;;5002464;28;20038;-70
2022/05/08 06:35:30;;;;;;;26.25;5.90;;;;;;;;;;4998376;28;21132;-70
2022/05/08 06:37:56;;;;;;;25.48;5.20;;;;;;;;;;4996358;28;20042;-70
2022/05/08 06:40:21;;;;;;;31.92;5.32;;;;;;;;;;4995442;28;20034;-70
2022/05/08 06:42:46;;;;;;;30.88;4.82;;;;;;;;;;4992142;28;20026;-71
2022/05/08 06:45:11;;;;;;;20.07;4.50;;;;;;;;;;4994018;28;20029;-71
2022/05/08 06:47:37;;;;;;;16.90;4.45;;;;;;;;;;4993097;28;20298;-71
2022/05/08 06:50:02;;;;;;;21.17;4.95;;;;;;;;;;4999200;28;20036;-71
2022/05/08 06:52:27;;;;;;;24.52;6.45;;;;;;;;;;4993358;28;20026;-70
2022/05/08 06:54:52;;;;;;;27.33;4.97;;;;;;;;;;4993789;28;20034;-71
2022/05/08 06:57:18;;;;;;;24.13;5.30;;;;;;;;;;4971841;28;20376;-70
2022/05/08 07:02:26;;;;;;;16.48;4.93;;;;;;;;;;4991502;28;20084;-70
2022/05/08 07:04:51;;;;;;;18.33;4.63;;;;;;;;;;4992084;28;20034;-70
2022/05/08 07:07:17;;;;;;;29.45;5.30;;;;;;;;;;4991775;28;20311;-71
2022/05/08 07:09:42;;;;;;;28.10;5.90;;;;;;;;;;4995955;28;20026;-70
2022/05/08 07:12:07;;;;;;;21.67;5.13;;;;;;;;;;4995968;28;20030;-70
2022/05/08 07:14:32;;;;;;;30.20;5.13;;;;;;;;;;4993889;28;20133;-71
2022/05/08 07:16:58;;;;;;;32.90;5.82;;;;;;;;;;4991681;28;20043;-70
2022/05/08 07:19:23;;;;;;;19.07;4.87;;;;;;;;;;4993467;28;20045;-71
2022/05/08 07:21:48;;;;;;;29.40;5.33;;;;;;;;;;4993493;28;20276;-71
2022/05/08 07:24:13;;;;;;;28.03;5.63;;;;;;;;;;5003800;28;20285;-71
2022/05/08 07:26:38;;;;;;;18.88;5.60;;;;;;;;;;5001302;28;20255;-71
2022/05/08 07:29:07;;;;;;;24.85;5.00;;;;;;;;;;4999663;28;20025;-70
2022/05/08 07:31:32;;;;;;;21.80;4.82;;;;;;;;;;4996190;28;20025;-71
2022/05/08 07:36:41;;;;;;;18.30;4.05;;;;;;;;;;5001056;28;20547;-71
2022/05/08 07:39:06;;;;;;;24.17;5.00;;;;;;;;;;4982827;28;20030;-71
2022/05/08 07:41:31;;;;;;;21.52;5.40;;;;;;;;;;5004494;28;20286;-72
2022/05/08 07:43:57;;;;;;;19.40;4.63;;;;;;;;;;4999819;28;21029;-71
2022/05/08 07:46:23;;;;;;;18.60;5.13;;;;;;;;;;4998348;28;20260;-72
2022/05/08 07:48:49;;;;;;;18.55;4.80;;;;;;;;;;5001046;28;20283;-71
2022/05/08 07:51:14;;;;;;;21.38;4.47;;;;;;;;;;5001889;28;20116;-71
2022/05/08 07:53:39;;;;;;;22.93;6.93;;;;;;;;;;5004440;28;20048;-71
2022/05/08 07:56:04;;;;;;;29.88;5.75;;;;;;;;;;4998284;28;20276;-72
2022/05/08 07:58:32;;;;;;;17.50;5.30;;;;;;;;;;5000405;28;20041;-71
2022/05/08 08:00:58;;;;;;;19.85;4.68;;;;;;;;;;4998173;23;20034;-70
2022/05/08 08:03:24;;;;;;;23.08;5.25;;;;;;;;;;4978323;28;20491;-70
2022/05/08 08:05:49;;;;;;;28.80;5.35;;;;;;;;;;4978560;28;20030;-69
2022/05/08 08:08:16;;;;;;;23.53;4.80;;;;;;;;;;4977730;28;22273;-70
2022/05/08 08:10:41;;;;;;;17.42;4.78;;;;;;;;;;4985430;28;20312;-69
2022/05/08 08:13:06;;;;;;;19.57;4.73;;;;;;;;;;4981580;28;20428;-69
2022/05/08 08:15:32;;;;;;;16.58;4.13;;;;;;;;;;4981115;28;20294;-72
2022/05/08 08:17:57;;;;;;;29.83;5.32;;;;;;;;;;4976000;28;20484;-71
2022/05/08 08:20:22;;;;;;;22.93;5.43;;;;;;;;;;4983605;28;20026;-69
2022/05/08 08:22:47;;;;;;;17.70;4.37;;;;;;;;;;4977113;28;20050;-76
2022/05/08 08:25:12;;;;;;;19.40;4.77;;;;;;;;;;4974105;28;20066;-72
2022/05/08 08:27:37;;;;;;;22.73;4.55;;;;;;;;;;4975070;28;20685;-71
2022/05/08 08:30:03;;;;;;;13.20;3.88;;;;;;;;;;4977336;28;20065;-70
2022/05/08 08:32:30;;;;;;;19.00;4.82;;;;;;;;;;4973649;28;20026;-71
2022/05/08 08:34:55;;;;;;;17.95;3.90;;;;;;;;;;4976090;28;20080;-72
2022/05/08 08:37:20;;;;;;;14.10;4.10;;;;;;;;;;4980001;28;20026;-71
2022/05/08 08:39:46;;;;;;;20.05;4.65;;;;;;;;;;4983427;28;20373;-70
2022/05/08 08:42:11;;;;;;;14.55;4.32;;;;;;;;;;4981279;28;20045;-70
2022/05/08 08:50:06;;;;;;;19.50;3.85;;;;;;;;;;4989969;28;20178;-71
2022/05/08 08:52:32;;;;;;;12.32;3.53;;;;;;;;;;4984680;28;20616;-71
2022/05/08 08:54:58;;;;;;;19.10;4.93;;;;;;;;;;4982080;28;20037;-71
2022/05/08 08:57:23;;;;;;;21.27;4.40;;;;;;;;;;4978994;28;20268;-69
2022/05/08 08:59:48;;;;;;;12.83;3.90;;;;;;;;;;4973828;28;20038;-69
2022/05/08 09:02:15;;;;;;;14.50;4.03;;;;;;;;;;4977255;28;20586;-70
2022/05/08 09:04:40;;;;;;;17.55;3.72;;;;;;;;;;4977694;28;20805;-69
2022/05/08 09:07:05;;;;;;;16.53;4.53;;;;;;;;;;4974580;28;20129;-70
2022/05/08 09:09:34;;;;;;;15.57;3.70;;;;;;;;;;4977036;28;20025;-70
2022/05/08 09:11:59;;;;;;;17.27;4.50;;;;;;;;;;4975274;28;20033;-70
2022/05/08 09:14:28;;;;;;;13.10;3.40;;;;;;;;;;4977963;28;20030;-70
2022/05/08 09:16:53;;;;;;;19.92;3.90;;;;;;;;;;4974947;28;20061;-70
2022/05/08 09:19:40;;;;;;;13.35;3.55;;;;;;;;;;4980804;28;20109;-70
2022/05/08 09:22:11;;;;;;;18.48;4.85;;;;;;;;;;4975510;28;21280;-69
2022/05/08 09:24:41;;;;;;;41.35;6.40;;;;;;;;;;4976306;28;20030;-70
2022/05/08 09:27:16;;;;;;;11.38;3.38;;;;;;;;;;4974029;28;20349;-71
2022/05/08 09:29:41;;;;;;;18.77;3.60;;;;;;;;;;4975820;28;20392;-71
2022/05/08 09:32:07;;;;;;;16.92;4.20;;;;;;;;;;4978500;28;20686;-70
2022/05/08 09:34:51;;;;;;;16.75;4.07;;;;;;;;;;4975546;28;20038;-71
2022/05/08 09:37:16;;;;;;;17.65;4.05;;;;;;;;;;4974798;28;20349;-71
2022/05/08 09:39:41;;;;;;;16.10;4.07;;;;;;;;;;4975626;28;20081;-71
2022/05/08 09:42:07;;;;;;;14.30;3.85;;;;;;;;;;4975724;28;20022;-74
2022/05/08 09:44:33;;;;;;;14.70;4.05;;;;;;;;;;4975630;28;20137;-71
2022/05/08 09:47:00;;;;;;;14.38;4.22;;;;;;;;;;4973065;28;20030;-71
2022/05/08 09:49:26;;;;;;;14.55;3.90;;;;;;;;;;4976376;28;20029;-71
2022/05/08 09:51:52;;;;;;;12.38;3.63;;;;;;;;;;4975518;28;20022;-70
2022/05/08 09:54:18;;;;;;;14.07;4.03;;;;;;;;;;4975481;28;20057;-65
2022/05/08 09:56:44;;;;;;;10.07;3.30;;;;;;;;;;4974108;28;20473;-64
2022/05/08 09:59:10;;;;;;;14.23;3.97;;;;;;;;;;4976541;28;20049;-65
2022/05/08 10:01:37;;;;;;;9.13;2.75;;;;;;;;;;4976022;28;20042;-66
2022/05/08 10:04:03;;;;;;;14.70;3.47;;;;;;;;;;4974501;28;20044;-70
2022/05/08 10:06:30;;;;;;;14.38;3.92;;;;;;;;;;4975587;28;20492;-73
2022/05/08 10:13:53;;;;;;;18.35;4.05;;;;;;;;;;4980336;28;20420;-71
2022/05/08 10:14:25;;;;;;;11.10;3.83;;;;;;;;;;4974002;28;20101;-72
2022/05/08 10:16:56;;;;;;;9.93;3.80;;;;;;;;;;4975042;28;20528;-70
2022/05/08 10:19:27;;;;;;;10.23;3.80;;;;;;;;;;4975013;28;22637;-71
2022/05/08 10:21:52;;;;;;;11.55;3.78;;;;;;;;;;4976032;28;20452;-71
2022/05/08 10:24:27;;;;;;;11.60;3.45;;;;;;;;;;4975222;28;20018;-70
2022/05/08 10:27:14;;;;;;;8.93;3.17;;;;;;;;;;4973179;28;20030;-71
2022/05/08 10:29:40;;;;;;;13.85;4.15;;;;;;;;;;4972372;28;20156;-71
2022/05/08 10:32:13;;;;;;;18.52;3.90;;;;;;;;;;4974716;28;20018;-71
2022/05/08 10:34:39;;;;;;;17.17;4.28;;;;;;;;;;4976220;28;20027;-74
2022/05/08 10:37:11;;;;;;;13.27;3.38;;;;;;;;;;4974597;28;20022;-71
2022/05/08 10:39:43;;;;;;;12.13;3.90;;;;;;;;;;4979072;28;20507;-72
2022/05/08 10:42:23;;;;;;;13.52;3.53;;;;;;;;;;4980062;28;20392;-72
2022/05/08 10:44:48;;;;;;;16.27;3.58;;;;;;;;;;4972366;28;20034;-72
2022/05/08 10:47:31;;;;;;;14.10;3.97;;;;;;;;;;4975943;28;20030;-71
2022/05/08 10:49:57;;;;;;;11.27;3.35;;;;;;;;;;4972708;28;20046;-71
2022/05/08 10:52:22;;;;;;;14.63;4.13;;;;;;;;;;4979019;28;20102;-71
2022/05/08 10:55:00;;;;;;;19.97;3.43;;;;;;;;;;4975233;28;20118;-71
2022/05/08 10:57:29;;;;;;;11.43;3.15;;;;;;;;;;4985485;28;20446;-72
2022/05/08 10:59:54;;;;;;;12.65;3.35;;;;;;;;;;4982827;28;20495;-72
2022/05/08 11:02:38;;;;;;;14.87;4.00;;;;;;;;;;4979761;28;20064;-72
2022/05/08 11:05:03;;;;;;;13.05;3.65;;;;;;;;;;4980312;28;20026;-73
2022/05/08 11:07:28;;;;;;;12.20;3.05;;;;;;;;;;4983294;28;20555;-74
2022/05/08 11:09:53;;;;;;;11.30;3.13;;;;;;;;;;4991526;28;20520;-72
2022/05/08 11:12:19;;;;;;;15.00;4.43;;;;;;;;;;4985740;28;20018;-71
2022/05/08 11:14:44;;;;;;;10.73;3.63;;;;;;;;;;4989723;28;20447;-73
2022/05/08 11:17:14;;;;;;;14.60;3.80;;;;;;;;;;4985428;28;20211;-72
2022/05/08 11:19:52;;;;;;;16.95;3.60;;;;;;;;;;4989864;28;20027;-72
2022/05/08 11:22:17;;;;;;;7.47;3.30;;;;;;;;;;4986317;28;20026;-74
2022/05/08 11:24:45;;;;;;;14.85;3.65;;;;;;;;;;4985463;28;20082;-73
2022/05/08 11:27:13;;;;;;;11.73;3.75;;;;;;;;;;4972535;28;20491;-72
2022/05/08 11:29:45;;;;;;;12.68;3.53;;;;;;;;;;4987418;28;20050;-72
2022/05/08 11:38:03;;;;;;;9.45;3.30;;;;;;;;;;4987895;28;20040;-73
2022/05/08 11:40:29;;;;;;;9.00;3.08;;;;;;;;;;4992862;28;20518;-72
2022/05/08 11:42:54;;;;;;;11.32;3.72;;;;;;;;;;4990261;28;20426;-73
2022/05/08 11:45:20;;;;;;;8.13;3.20;;;;;;;;;;4975072;28;20033;-73
2022/05/08 11:47:53;;;;;;;7.80;3.40;;;;;;;;;;4987765;28;20534;-73
2022/05/08 11:50:18;;;;;;;17.52;3.58;;;;;;;;;;4995257;28;20019;-72
2022/05/08 11:52:43;;;;;;;14.93;3.73;;;;;;;;;;4988320;28;20030;-72
2022/05/08 11:55:08;;;;;;;12.13;3.10;;;;;;;;;;4990643;28;20034;-72
2022/05/08 11:57:41;;;;;;;11.18;3.42;;;;;;;;;;4984152;28;20660;-74
2022/05/08 12:00:07;;;;;;;9.38;3.50;;;;;;;;;;4992475;28;20034;-72
2022/05/08 12:02:52;;;;;;;12.23;3.17;;;;;;;;;;4991926;28;20442;-74
2022/05/08 12:05:18;;;;;;;9.68;3.90;;;;;;;;;;4991800;28;20226;-71
2022/05/08 12:07:45;;;;;;;6.95;2.72;;;;;;;;;;4991610;28;20032;-72
2022/05/08 12:10:10;;;;;;;12.82;2.95;;;;;;;;;;4992626;28;20589;-74
2022/05/08 12:12:37;;;;;;;12.77;3.58;;;;;;;;;;4991463;28;20105;-73
2022/05/08 12:15:06;;;;;;;6.50;2.67;;;;;;;;;;4992876;28;20022;-74
2022/05/08 12:17:43;;;;;;;11.95;2.90;;;;;;;;;;4996509;28;20019;-74
2022/05/08 12:20:09;;;;;;;13.35;3.38;;;;;;;;;;4994229;28;20037;-72
2022/05/08 12:22:35;;;;;;;11.75;3.15;;;;;;;;;;4989158;28;20039;-73
2022/05/08 12:25:00;;;;;;;10.85;3.05;;;;;;;;;;4970933;28;20034;-74
2022/05/08 12:27:25;;;;;;;8.63;3.10;;;;;;;;;;4988545;28;20105;-74
2022/05/08 12:29:51;;;;;;;8.38;2.90;;;;;;;;;;4995404;28;20264;-75
2022/05/08 12:32:16;;;;;;;5.30;2.67;;;;;;;;;;4998386;28;20041;-70
2022/05/08 12:34:42;;;;;;;16.42;3.35;;;;;;;;;;4993083;28;20118;-74
2022/05/08 12:37:08;;;;;;;10.38;3.03;;;;;;;;;;4994336;28;20033;-74
2022/05/08 12:39:33;;;;;;;9.00;2.92;;;;;;;;;;4987946;28;20061;-74
2022/05/08 12:41:58;;;;;;;11.47;2.83;;;;;;;;;;4986107;28;20035;-72
2022/05/08 12:44:24;;;;;;;11.20;2.83;;;;;;;;;;4994097;28;20026;-72
2022/05/08 12:46:49;;;;;;;8.55;3.25;;;;;;;;;;4985925;28;20030;-70
2022/05/08 12:49:15;;;;;;;6.50;2.83;;;;;;;;;;4985177;28;20061;-73
2022/05/08 12:51:42;;;;;;;13.52;2.90;;;;;;;;;;4987585;28;20038;-73
2022/05/08 12:54:07;;;;;;;9.23;2.90;;;;;;;;;;4991993;28;20049;-73
2022/05/08 12:56:33;;;;;;;21.83;3.87;;;;;;;;;;4997438;28;20397;-74
2022/05/08 13:01:43;;;;;;;14.55;3.72;;;;;;;;;;4983100;28;20477;-74
2022/05/08 13:04:08;;;;;;;10.43;3.10;;;;;;;;;;4969896;28;20121;-74
2022/05/08 13:06:34;;;;;;;9.38;2.72;;;;;;;;;;4996683;28;20025;-73
2022/05/08 13:08:59;;;;;;;9.00;2.78;;;;;;;;;;4992224;28;20026;-74
2022/05/08 13:11:24;;;;;;;9.25;3.00;;;;;;;;;;4992442;28;20026;-72
2022/05/08 13:13:49;;;;;;;7.60;2.77;;;;;;;;;;4986499;28;20078;-72
2022/05/08 13:16:15;;;;;;;6.60;2.55;;;;;;;;;;4990547;28;20294;-74
2022/05/08 13:18:41;;;;;;;7.07;3.13;;;;;;;;;;4983796;28;20039;-74
2022/05/08 13:21:06;;;;;;;9.27;3.05;;;;;;;;;;4989614;28;20030;-73
2022/05/08 13:23:31;;;;;;;10.07;2.53;;;;;;;;;;4986126;28;20035;-74
2022/05/08 13:25:56;;;;;;;8.73;2.80;;;;;;;;;;4995199;28;21659;-74
2022/05/08 13:28:21;;;;;;;9.48;2.55;;;;;;;;;;4988577;28;20042;-73
2022/05/08 13:30:47;;;;;;;7.87;2.40;;;;;;;;;;4981506;28;20038;-74
2022/05/08 13:33:12;;;;;;;8.33;2.87;;;;;;;;;;4983275;28;20311;-73
2022/05/08 13:35:37;;;;;;;8.43;2.90;;;;;;;;;;4987973;28;20275;-72
2022/05/08 13:38:02;;;;;;;12.40;3.10;;;;;;;;;;4991425;28;20034;-70
2022/05/08 13:40:27;;;;;;;11.23;3.13;;;;;;;;;;4986928;28;20033;-71
2022/05/08 13:42:53;;;;;;;9.38;2.67;;;;;;;;;;4988126;28;20026;-73
2022/05/08 13:45:18;;;;;;;7.97;2.77;;;;;;;;;;4982279;28;20027;-73
2022/05/08 13:47:43;;;;;;;7.57;2.50;;;;;;;;;;4987099;28;20128;-73
2022/05/08 13:50:09;;;;;;;13.23;3.23;;;;;;;;;;4998477;28;20109;-74
2022/05/08 13:52:35;;;;;;;5.15;2.70;;;;;;;;;;4989571;28;20600;-73
2022/05/08 13:55:00;;;;;;;6.57;2.50;;;;;;;;;;4986298;28;20526;-73
2022/05/08 13:57:30;;;;;;;8.90;2.50;;;;;;;;;;4986426;28;20026;-73
2022/05/08 13:59:56;;;;;;;8.75;3.13;;;;;;;;;;4984283;28;20280;-74
2022/05/08 14:02:22;;;;;;;12.77;3.75;;;;;;;;;;4990869;28;20022;-72
2022/05/08 14:04:47;;;;;;;10.57;3.23;;;;;;;;;;4987736;28;20041;-74
2022/05/08 14:07:12;;;;;;;10.68;4.00;;;;;;;;;;4988181;28;20033;-73
2022/05/08 14:09:37;;;;;;;6.33;2.80;;;;;;;;;;4995341;28;20036;-74
2022/05/08 14:12:02;;;;;;;5.97;2.63;;;;;;;;;;4986229;28;20279;-72
2022/05/08 14:14:28;;;;;;;6.10;2.38;;;;;;;;;;4984211;28;20022;-74
2022/05/08 14:16:53;;;;;;;4.83;2.40;;;;;;;;;;4989965;28;20038;-73
2022/05/08 14:19:18;;;;;;;7.80;2.30;;;;;;;;;;4969050;28;20035;-73
2022/05/08 14:21:43;;;;;;;8.07;2.90;;;;;;;;;;4983975;28;20051;-73
2022/05/08 14:24:08;;;;;;;7.17;2.47;;;;;;;;;;4983786;28;20291;-74
2022/05/08 14:26:33;;;;;;;20.73;5.83;;;;;;;;;;4990783;28;20019;-74
2022/05/08 14:28:59;;;;;;;10.90;4.40;;;;;;;;;;4990414;28;20045;-73
2022/05/08 14:36:52;;;;;;;14.25;3.95;;;;;;;;;;4981414;28;20052;-74
2022/05/08 14:39:17;;;;;;;5.38;2.50;;;;;;;;;;4984611;28;20469;-74
2022/05/08 14:41:45;;;;;;;4.50;2.57;;;;;;;;;;4980357;28;20426;-74
2022/05/08 14:44:10;;;;;;;7.03;1.98;;;;;;;;;;4982115;28;20118;-73
2022/05/08 14:46:35;;;;;;;5.53;2.20;;;;;;;;;;4976321;28;20106;-73
2022/05/08 14:49:00;;;;;;;10.35;2.53;;;;;;;;;;4983441;28;20046;-73
2022/05/08 14:51:26;;;;;;;6.65;2.22;;;;;;;;;;4976256;28;20060;-74
2022/05/08 14:53:51;;;;;;;4.38;2.30;;;;;;;;;;4977625;28;20053;-74
2022/05/08 14:56:16;;;;;;;11.10;2.70;;;;;;;;;;4975653;28;20065;-73
2022/05/08 14:58:41;;;;;;;8.27;2.47;;;;;;;;;;4984995;28;20316;-73